CheckWX is a tool to help pilots better visualize weather data.  It is not intended as a substitute for an official pre-flight weather briefing.

15:58:44 UTC

KSDL METAR
Scottsdale Airport
Scottsdale, Arizona, USA
Current

1 hour ago

KSDL 281453Z 21003KT 10SM CLR 29/06 A2993 RMK AO2 SLP104 T02890061 52018
Observed
May-28 @ 14:53 UTC
Wind
  • 210° at 3 KTS
Visibility
Flight Rules
VFR
Cloud Levels
  • Clear skies
Temperature
29°C / 84°F
Dewpoint
C / 43°F
Humidity
23%
Altimeter
29.93" Hg
Pressure
1013.52 hPa
Previous

2 hours ago

KSDL 281353Z 00000KT 10SM CLR 28/06 A2991 RMK AO2 SLP098 T02780056
Observed
May-28 @ 13:53 UTC
Visibility
Flight Rules
VFR
Cloud Levels
  • Clear skies
Temperature
28°C / 82°F
Dewpoint
C / 43°F
Humidity
25%
Altimeter
29.91" Hg
Pressure
1012.92 hPa
Previous

3 hours ago

KSDL 281253Z 00000KT 10SM CLR 27/03 A2989 RMK AO2 SLP093 T02670033
Observed
May-28 @ 12:53 UTC
Visibility
Flight Rules
VFR
Cloud Levels
  • Clear skies
Temperature
27°C / 81°F
Dewpoint
C / 37°F
Humidity
21%
Altimeter
29.89" Hg
Pressure
1012.22 hPa